createdAt,value
2023-02-22T00:02:10.403Z,101528.50
2023-02-22T00:04:39.990Z,101516.03
2023-02-22T00:07:07.988Z,101507.50
2023-02-22T00:09:37.059Z,101523.09
2023-02-22T00:12:05.019Z,101523.53
2023-02-22T00:14:33.569Z,101494.03
2023-02-22T00:17:01.496Z,101501.88
2023-02-22T00:19:30.887Z,101479.09
2023-02-22T00:21:59.095Z,101459.91
2023-02-22T00:24:26.910Z,101443.16
2023-02-22T00:26:56.599Z,101427.19
2023-02-22T00:29:24.576Z,101403.34
2023-02-22T00:31:52.790Z,101405.63
2023-02-22T00:34:20.609Z,101391.53
2023-02-22T00:36:48.592Z,101402.00
2023-02-22T00:39:16.402Z,101427.78
2023-02-22T00:41:44.734Z,101472.59
2023-02-22T00:44:13.890Z,101481.16
2023-02-22T00:46:41.637Z,101473.97
2023-02-22T00:49:09.384Z,101476.72
2023-02-22T00:51:37.097Z,101486.88
2023-02-22T00:54:05.393Z,101464.66
2023-02-22T00:56:34.101Z,101405.69
2023-02-22T00:59:01.922Z,101374.28
2023-02-22T01:01:31.395Z,101429.38
2023-02-22T01:03:59.204Z,101469.44
2023-02-22T01:06:27.291Z,101481.09
2023-02-22T01:08:55.022Z,101493.44
2023-02-22T01:11:23.350Z,101483.97
2023-02-22T01:13:54.104Z,101472.28
2023-02-22T01:16:22.247Z,101465.81
2023-02-22T01:18:51.373Z,101470.19
2023-02-22T01:21:19.668Z,101454.78
2023-02-22T01:23:47.875Z,101422.78
2023-02-22T01:26:15.576Z,101373.53
2023-02-22T01:28:43.310Z,101348.53
2023-02-22T01:31:12.549Z,101372.03
2023-02-22T01:33:41.711Z,101426.50
2023-02-22T01:36:11.455Z,101392.31
2023-02-22T01:38:39.512Z,101328.06
2023-02-22T01:41:07.479Z,101300.97
2023-02-22T01:43:35.339Z,101266.72
2023-02-22T01:46:04.946Z,101250.66
2023-02-22T01:48:44.423Z,101249.50
2023-02-22T01:51:17.089Z,101310.41
2023-02-22T01:53:51.343Z,101344.03
2023-02-22T01:56:21.945Z,101373.59
2023-02-22T01:58:53.054Z,101392.19
2023-02-22T02:01:23.061Z,101393.34
2023-02-22T02:03:53.034Z,101346.25
2023-02-22T02:06:22.303Z,101331.69
2023-02-22T02:08:59.944Z,101298.28
2023-02-22T02:11:29.603Z,101278.69
2023-02-22T02:13:58.649Z,101255.41
2023-02-22T02:16:36.316Z,101224.00
2023-02-22T02:19:09.356Z,101208.31
2023-02-22T02:21:53.007Z,101217.28
2023-02-22T02:25:05.205Z,101172.69
2023-02-22T02:27:54.914Z,101151.13
2023-02-22T02:30:45.110Z,101156.44
2023-02-22T02:33:19.572Z,101213.91
2023-02-22T02:35:52.704Z,101257.63
2023-02-22T02:38:31.533Z,101288.47
2023-02-22T02:41:08.113Z,101238.84
2023-02-22T02:43:41.813Z,101190.19
2023-02-22T02:46:15.334Z,101193.56
2023-02-22T02:48:51.478Z,101180.69
2023-02-22T02:51:20.552Z,101228.38
2023-02-22T02:53:51.284Z,101245.00
2023-02-22T02:56:19.051Z,101231.25
2023-02-22T02:58:50.206Z,101206.88
2023-02-22T03:01:33.464Z,101201.66
2023-02-22T03:04:21.863Z,101178.97
2023-02-22T03:07:13.847Z,101190.00
2023-02-22T03:09:55.085Z,101201.06
2023-02-22T03:12:36.996Z,101212.06
2023-02-22T03:15:14.938Z,101195.66
2023-02-22T03:17:52.633Z,101176.34
2023-02-22T03:20:31.793Z,101169.38
2023-02-22T03:23:05.778Z,101180.38
2023-02-22T03:25:37.591Z,101186.66
2023-02-22T03:28:11.464Z,101193.34
2023-02-22T03:30:44.013Z,101227.34
2023-02-22T03:33:16.573Z,101244.19
2023-02-22T03:35:51.042Z,101191.88
2023-02-22T03:38:21.756Z,101191.78
2023-02-22T03:40:54.438Z,101208.59
2023-02-22T03:43:26.003Z,101194.03
2023-02-22T03:45:54.345Z,101199.03
2023-02-22T03:48:28.303Z,101190.31
2023-02-22T03:50:58.482Z,101251.28
2023-02-22T03:53:26.857Z,101235.19
2023-02-22T03:55:58.330Z,101233.19
2023-02-22T03:58:29.923Z,101271.13
2023-02-22T04:00:57.938Z,101310.09
2023-02-22T04:03:25.651Z,101321.22
2023-02-22T04:05:53.431Z,101307.75
2023-02-22T04:08:22.546Z,101318.13
2023-02-22T04:10:50.433Z,101275.06
2023-02-22T04:13:18.217Z,101231.72
2023-02-22T04:15:45.943Z,101186.63
2023-02-22T04:18:14.109Z,101158.84
2023-02-22T04:20:41.844Z,101197.34
2023-02-22T04:23:09.568Z,101230.19
2023-02-22T04:25:38.706Z,101259.75
2023-02-22T04:28:06.429Z,101259.16
2023-02-22T04:30:34.420Z,101227.63
2023-02-22T04:33:02.248Z,101184.28
2023-02-22T04:35:29.996Z,101162.22
2023-02-22T04:37:58.187Z,101155.00
2023-02-22T04:40:25.933Z,101155.66
2023-02-22T04:42:55.013Z,101162.22
2023-02-22T04:45:22.849Z,101187.00
2023-02-22T04:47:50.605Z,101207.16
2023-02-22T04:50:18.382Z,101223.19
2023-02-22T04:52:46.314Z,101214.97
2023-02-22T04:55:14.075Z,101241.94
2023-02-22T04:57:41.774Z,101258.34
2023-02-22T05:00:12.126Z,101275.22
2023-02-22T05:02:40.083Z,101256.09
2023-02-22T05:05:08.391Z,101245.19
2023-02-22T05:07:36.123Z,101178.91
2023-02-22T05:10:03.876Z,101135.94
2023-02-22T05:12:31.600Z,101113.31
2023-02-22T05:14:59.357Z,101091.16
2023-02-22T05:17:28.693Z,101108.53
2023-02-22T05:19:56.469Z,101094.06
2023-02-22T05:22:24.503Z,101082.69
2023-02-22T05:24:52.612Z,101082.66
2023-02-22T05:27:20.866Z,101076.19
2023-02-22T05:29:48.539Z,101090.69
2023-02-22T05:32:16.239Z,101078.59
2023-02-22T05:34:45.671Z,101080.84
2023-02-22T05:37:13.429Z,101087.59
2023-02-22T05:39:41.170Z,101081.69
2023-02-22T05:42:08.874Z,101090.50
2023-02-22T05:44:36.579Z,101085.44
2023-02-22T05:47:04.596Z,101075.16
2023-02-22T05:49:32.330Z,101081.69
2023-02-22T05:52:01.425Z,101080.75
2023-02-22T05:54:29.154Z,101091.59
2023-02-22T05:56:56.877Z,101084.50
2023-02-22T05:59:24.601Z,101089.84
2023-02-22T06:01:52.374Z,101086.63
2023-02-22T06:04:20.194Z,101091.88
2023-02-22T06:06:47.910Z,101099.88
2023-02-22T06:09:18.235Z,101090.88
2023-02-22T06:11:45.971Z,101097.47
2023-02-22T06:14:13.796Z,101090.59
2023-02-22T06:16:41.518Z,101089.84
2023-02-22T06:19:09.252Z,101087.31
2023-02-22T06:21:36.998Z,101082.97
2023-02-22T06:24:05.121Z,101085.88
2023-02-22T06:26:34.356Z,101089.13
2023-02-22T06:29:02.127Z,101090.66
2023-02-22T06:31:29.885Z,101103.75
2023-02-22T06:33:57.787Z,101101.72
2023-02-22T06:36:25.494Z,101098.06
2023-02-22T06:38:53.194Z,101108.44
2023-02-22T06:41:20.988Z,101110.16
2023-02-22T06:43:50.040Z,101100.69
2023-02-22T06:46:17.820Z,101112.75
2023-02-22T06:48:45.525Z,101125.41
2023-02-22T06:51:13.333Z,101124.13
2023-02-22T06:53:41.443Z,101158.66
2023-02-22T06:56:09.216Z,101155.84
2023-02-22T06:58:36.955Z,101174.09
2023-02-22T07:01:07.831Z,101172.13
2023-02-22T07:03:35.971Z,101159.19
2023-02-22T07:06:04.361Z,101159.91
2023-02-22T07:08:32.220Z,101164.81
2023-02-22T07:11:00.022Z,101173.03
2023-02-22T07:13:27.721Z,101173.31
2023-02-22T07:15:55.530Z,101156.97
2023-02-22T07:18:25.150Z,101161.56
2023-02-22T07:20:52.888Z,101163.59
2023-02-22T07:23:21.042Z,101162.22
2023-02-22T07:25:48.800Z,101167.53
2023-02-22T07:28:16.851Z,101178.78
2023-02-22T07:30:44.656Z,101175.41
2023-02-22T07:33:14.050Z,101183.19
2023-02-22T07:35:47.591Z,101202.38
2023-02-22T07:38:16.747Z,101209.31
2023-02-22T07:40:44.953Z,101216.38
2023-02-22T07:43:16.939Z,101251.75
2023-02-22T07:45:45.547Z,101259.47
2023-02-22T07:48:16.264Z,101259.16
2023-02-22T07:50:46.714Z,101248.97
2023-02-22T07:53:19.081Z,101226.94
2023-02-22T07:55:47.746Z,101219.34
2023-02-22T07:58:16.804Z,101205.22
2023-02-22T08:00:45.084Z,101202.75
2023-02-22T08:03:14.533Z,101208.00
2023-02-22T08:05:45.743Z,101224.84
2023-02-22T08:08:18.130Z,101241.50
2023-02-22T08:10:47.763Z,101240.19
2023-02-22T08:13:15.841Z,101233.63
2023-02-22T08:15:45.026Z,101248.00
2023-02-22T08:18:15.329Z,101233.59
2023-02-22T08:20:45.306Z,101230.88
2023-02-22T08:23:16.006Z,101240.53
2023-02-22T08:25:43.811Z,101247.63
2023-02-22T08:28:15.122Z,101270.72
2023-02-22T08:30:43.891Z,101271.34
2023-02-22T08:33:14.372Z,101275.47
2023-02-22T08:35:42.807Z,101262.34
2023-02-22T08:38:18.286Z,101264.88
2023-02-22T08:40:46.285Z,101289.81
2023-02-22T08:43:14.580Z,101302.31
2023-02-22T08:45:43.060Z,101329.56
2023-02-22T08:48:10.816Z,101365.09
2023-02-22T08:50:38.520Z,101401.41
2023-02-22T08:53:06.891Z,101421.91
2023-02-22T08:55:38.230Z,101460.72
2023-02-22T08:58:09.309Z,101494.75
2023-02-22T09:00:38.823Z,101502.72
2023-02-22T09:03:08.670Z,101489.53
2023-02-22T09:05:36.413Z,101475.75
2023-02-22T09:08:04.819Z,101472.22
2023-02-22T09:10:35.999Z,101479.78
2023-02-22T09:13:04.202Z,101484.16
2023-02-22T09:15:32.855Z,101502.31
2023-02-22T09:18:00.941Z,101491.66
2023-02-22T09:20:29.630Z,101500.78
2023-02-22T09:22:57.786Z,101477.41
2023-02-22T09:25:25.503Z,101506.28
2023-02-22T09:27:55.138Z,101529.34
2023-02-22T09:30:25.916Z,101512.28
2023-02-22T09:32:55.500Z,101515.44
2023-02-22T09:35:27.281Z,101511.41
2023-02-22T09:37:56.633Z,101485.69
2023-02-22T09:40:29.944Z,101511.34
2023-02-22T09:43:35.709Z,101495.34
2023-02-22T09:46:19.141Z,101491.59
2023-02-22T09:48:59.224Z,101487.81
2023-02-22T09:51:31.751Z,101476.41
2023-02-22T09:54:03.415Z,101479.34
2023-02-22T09:56:34.497Z,101489.19
2023-02-22T09:59:07.833Z,101484.53
2023-02-22T10:01:41.213Z,101501.44
2023-02-22T10:04:18.668Z,101500.84
2023-02-22T10:07:06.028Z,101493.38
2023-02-22T10:09:38.302Z,101508.91
2023-02-22T10:12:13.656Z,101506.41
2023-02-22T10:14:57.748Z,101524.09
2023-02-22T10:17:34.888Z,101518.19
2023-02-22T10:20:21.881Z,101526.44
2023-02-22T10:22:58.966Z,101521.91
2023-02-22T10:25:28.810Z,101530.53
2023-02-22T10:28:03.626Z,101535.22
2023-02-22T10:30:36.786Z,101544.81
2023-02-22T10:33:13.100Z,101536.03
2023-02-22T10:35:41.864Z,101530.81
2023-02-22T10:38:16.626Z,101554.66
2023-02-22T10:40:47.637Z,101548.41
2023-02-22T10:43:15.449Z,101557.59
2023-02-22T10:45:44.649Z,101546.13
2023-02-22T10:48:18.427Z,101546.13
2023-02-22T10:50:47.788Z,101549.91
2023-02-22T10:53:16.412Z,101550.50
2023-02-22T10:56:18.467Z,101546.22
2023-02-22T10:58:50.251Z,101558.44
2023-02-22T11:01:40.788Z,101543.00
2023-02-22T11:04:15.717Z,101542.38
2023-02-22T11:06:46.118Z,101544.50
2023-02-22T11:09:15.919Z,101543.81
2023-02-22T11:11:46.440Z,101560.13
2023-02-22T11:14:25.514Z,101549.44
2023-02-22T11:16:57.078Z,101547.63
2023-02-22T11:19:28.314Z,101537.13
2023-02-22T11:21:58.995Z,101536.38
2023-02-22T11:24:37.223Z,101532.19
2023-02-22T11:27:08.076Z,101534.44
2023-02-22T11:29:37.888Z,101530.81
2023-02-22T11:32:15.815Z,101533.13
2023-02-22T11:34:43.906Z,101533.59
2023-02-22T11:37:29.340Z,101519.19
2023-02-22T11:40:12.275Z,101518.88
2023-02-22T11:42:40.854Z,101520.56
2023-02-22T11:45:17.233Z,101520.47
2023-02-22T11:47:53.681Z,101520.72
2023-02-22T11:50:29.884Z,101520.44
2023-02-22T11:53:25.350Z,101510.13
2023-02-22T11:56:08.004Z,101513.41
2023-02-22T11:58:45.668Z,101498.41
2023-02-22T12:01:20.980Z,101493.66
2023-02-22T12:04:15.788Z,101495.69
2023-02-22T12:06:51.318Z,101488.38
2023-02-22T12:09:27.075Z,101494.00
2023-02-22T12:12:08.711Z,101498.91
2023-02-22T12:14:48.738Z,101496.75
2023-02-22T12:17:30.875Z,101489.25
2023-02-22T12:20:09.755Z,101490.88
2023-02-22T12:22:40.482Z,101497.78
2023-02-22T12:25:19.484Z,101481.59
2023-02-22T12:27:51.084Z,101494.94
2023-02-22T12:30:24.584Z,101495.97
2023-02-22T12:32:54.952Z,101483.53
2023-02-22T12:35:26.959Z,101488.56
2023-02-22T12:38:04.112Z,101488.94
2023-02-22T12:40:38.494Z,101483.75
2023-02-22T12:43:16.683Z,101473.66
2023-02-22T12:45:49.211Z,101473.53
2023-02-22T12:48:47.144Z,101459.44
2023-02-22T12:51:29.331Z,101458.28
2023-02-22T12:54:03.196Z,101452.91
2023-02-22T12:56:35.296Z,101445.81
2023-02-22T12:59:11.198Z,101452.09
2023-02-22T13:01:42.094Z,101437.66
2023-02-22T13:04:20.452Z,101413.63
2023-02-22T13:07:06.540Z,101412.94
2023-02-22T13:10:12.962Z,101394.81
2023-02-22T13:12:52.038Z,101405.47
2023-02-22T13:15:27.287Z,101406.53
2023-02-22T13:18:04.057Z,101397.75
2023-02-22T13:20:38.839Z,101396.09
2023-02-22T13:23:16.579Z,101386.28
2023-02-22T13:25:48.343Z,101390.59
2023-02-22T13:28:25.417Z,101385.91
2023-02-22T13:31:05.386Z,101360.09
2023-02-22T13:33:50.114Z,101348.28
2023-02-22T13:36:37.822Z,101346.50
2023-02-22T13:39:54.567Z,101344.66
2023-02-22T13:42:40.547Z,101336.81
2023-02-22T13:45:38.427Z,101338.81
2023-02-22T13:48:44.821Z,101339.50
2023-02-22T13:51:21.171Z,101334.81
2023-02-22T13:53:55.614Z,101337.88
2023-02-22T13:56:26.315Z,101339.47
2023-02-22T13:58:56.506Z,101360.59
2023-02-22T14:01:53.405Z,101357.72
2023-02-22T14:04:24.396Z,101347.53
2023-02-22T14:06:52.337Z,101348.56
2023-02-22T14:09:45.575Z,101356.84
2023-02-22T14:12:49.129Z,101333.47
2023-02-22T14:15:29.268Z,101331.44
2023-02-22T14:18:00.934Z,101327.28
2023-02-22T14:20:32.307Z,101330.34
2023-02-22T14:23:28.599Z,101326.56
2023-02-22T14:25:56.968Z,101327.19
2023-02-22T14:28:40.488Z,101315.00
2023-02-22T14:31:17.402Z,101316.63
2023-02-22T14:33:53.436Z,101312.41
2023-02-22T14:36:22.699Z,101301.84
2023-02-22T14:38:54.402Z,101313.19
2023-02-22T14:41:26.760Z,101310.88
2023-02-22T14:43:57.511Z,101305.59
2023-02-22T14:46:31.704Z,101308.88
2023-02-22T14:49:04.311Z,101312.56
2023-02-22T14:51:39.562Z,101284.84
2023-02-22T14:54:13.258Z,101278.94
2023-02-22T14:56:49.139Z,101278.84
2023-02-22T14:59:20.984Z,101249.03
2023-02-22T15:02:02.194Z,101254.72
2023-02-22T15:04:37.784Z,101266.47
2023-02-22T15:07:12.615Z,101273.66
2023-02-22T15:09:40.370Z,101265.84
2023-02-22T15:12:22.287Z,101265.47
2023-02-22T15:14:51.727Z,101265.31
2023-02-22T15:17:22.604Z,101247.81
2023-02-22T15:19:51.104Z,101247.06
2023-02-22T15:22:25.026Z,101256.06
2023-02-22T15:25:00.126Z,101246.00
2023-02-22T15:27:28.327Z,101240.16
2023-02-22T15:30:04.579Z,101221.00
2023-02-22T15:32:36.720Z,101236.81
2023-02-22T15:35:14.040Z,101194.00
2023-02-22T15:37:41.843Z,101198.59
2023-02-22T15:40:14.628Z,101176.09
2023-02-22T15:42:47.772Z,101176.16
2023-02-22T15:45:21.531Z,101210.56
2023-02-22T15:47:50.578Z,101206.34
2023-02-22T15:50:23.760Z,101211.97
2023-02-22T15:52:57.993Z,101203.72
2023-02-22T15:55:28.664Z,101234.16
2023-02-22T15:57:59.048Z,101234.47
2023-02-22T16:00:36.313Z,101219.69
2023-02-22T16:03:05.791Z,101211.41
2023-02-22T16:05:40.305Z,101189.56
2023-02-22T16:08:16.785Z,101217.16
2023-02-22T16:10:53.216Z,101215.50
2023-02-22T16:13:31.669Z,101200.47
2023-02-22T16:16:03.554Z,101203.63
2023-02-22T16:18:33.879Z,101168.16
2023-02-22T16:21:13.898Z,101163.09
2023-02-22T16:23:47.720Z,101181.72
2023-02-22T16:26:28.779Z,101151.81
2023-02-22T16:28:58.486Z,101172.75
2023-02-22T16:31:29.398Z,101191.06
2023-02-22T16:33:57.271Z,101170.69
2023-02-22T16:36:38.878Z,101154.19
2023-02-22T16:39:08.276Z,101174.09
2023-02-22T16:41:36.247Z,101146.44
2023-02-22T16:44:08.015Z,101134.75
2023-02-22T16:46:37.989Z,101164.81
2023-02-22T16:49:11.410Z,101167.22
2023-02-22T16:51:44.863Z,101153.78
2023-02-22T16:54:15.141Z,101194.44
2023-02-22T16:56:43.008Z,101174.63
2023-02-22T16:59:15.104Z,101148.06
2023-02-22T17:01:45.181Z,101106.75
2023-02-22T17:04:17.874Z,101120.44
2023-02-22T17:06:46.046Z,101136.25
2023-02-22T17:09:15.243Z,101140.25
2023-02-22T17:11:44.569Z,101127.94
2023-02-22T17:14:17.445Z,101129.31
2023-02-22T17:16:47.600Z,101108.25
2023-02-22T17:19:18.363Z,101077.88
2023-02-22T17:21:46.347Z,101118.03
2023-02-22T17:24:16.339Z,101108.56
2023-02-22T17:26:44.429Z,101098.75
2023-02-22T17:29:13.801Z,101145.03
2023-02-22T17:31:42.139Z,101121.44
2023-02-22T17:34:11.601Z,101109.19
2023-02-22T17:36:39.351Z,101101.13
2023-02-22T17:39:10.493Z,101128.63
2023-02-22T17:41:40.561Z,101122.41
2023-02-22T17:44:09.106Z,101144.47
2023-02-22T17:46:37.121Z,101124.88
2023-02-22T17:49:05.071Z,101113.63
2023-02-22T17:51:34.357Z,101099.13
2023-02-22T17:54:02.081Z,101091.06
2023-02-22T17:56:29.809Z,101101.66
2023-02-22T17:58:57.537Z,101111.47
2023-02-22T18:01:27.321Z,101120.00
2023-02-22T18:03:56.401Z,101106.56
2023-02-22T18:06:27.201Z,101090.63
2023-02-22T18:08:58.890Z,101052.81
2023-02-22T18:11:28.263Z,101062.53
2023-02-22T18:13:56.908Z,101043.38
2023-02-22T18:16:26.616Z,101046.25
2023-02-22T18:18:55.139Z,101031.66
2023-02-22T18:21:23.375Z,101031.06
2023-02-22T18:23:51.202Z,101008.19
2023-02-22T18:26:22.281Z,101030.75
2023-02-22T18:28:50.452Z,101084.13
2023-02-22T18:31:20.210Z,101055.13
2023-02-22T18:33:49.916Z,101005.50
2023-02-22T18:36:23.179Z,100980.81
2023-02-22T18:38:52.788Z,100959.50
2023-02-22T18:41:26.165Z,100948.53
2023-02-22T18:43:55.318Z,100915.47
2023-02-22T18:46:25.229Z,100901.13
2023-02-22T18:48:55.269Z,100900.16
2023-02-22T18:51:23.691Z,100907.09
2023-02-22T18:53:56.779Z,100900.03
2023-02-22T18:56:29.699Z,100901.03
2023-02-22T18:58:59.644Z,100895.94
2023-02-22T19:01:27.654Z,100882.47
2023-02-22T19:03:55.649Z,100882.59
2023-02-22T19:06:23.564Z,100885.94
2023-02-22T19:08:51.582Z,100881.16
2023-02-22T19:11:21.873Z,100885.19
2023-02-22T19:13:54.421Z,100911.31
2023-02-22T19:16:24.459Z,100889.88
2023-02-22T19:18:57.089Z,100881.88
2023-02-22T19:21:26.153Z,100879.03
2023-02-22T19:23:54.174Z,100867.00
2023-02-22T19:26:24.311Z,100859.94
2023-02-22T19:28:55.100Z,100862.44
2023-02-22T19:31:26.590Z,100859.69
2023-02-22T19:33:54.516Z,100849.97
2023-02-22T19:36:24.094Z,100834.91
2023-02-22T19:38:52.137Z,100840.66
2023-02-22T19:41:22.793Z,100839.94
2023-02-22T19:43:52.532Z,100843.41
2023-02-22T19:46:22.182Z,100845.31
2023-02-22T19:48:50.991Z,100830.72
2023-02-22T19:51:20.957Z,100824.84
2023-02-22T19:53:48.757Z,100831.53
2023-02-22T19:56:18.460Z,100847.63
2023-02-22T19:58:48.369Z,100855.88
2023-02-22T20:01:22.822Z,100845.78
2023-02-22T20:03:54.172Z,100846.59
2023-02-22T20:06:23.233Z,100847.38
2023-02-22T20:08:51.294Z,100858.13
2023-02-22T20:11:19.353Z,100854.66
2023-02-22T20:13:47.217Z,100850.72
2023-02-22T20:16:17.340Z,100854.53
2023-02-22T20:18:46.886Z,100845.09
2023-02-22T20:21:20.602Z,100870.59
2023-02-22T20:23:48.668Z,100864.34
2023-02-22T20:26:20.332Z,100864.59
2023-02-22T20:28:48.080Z,100862.09
2023-02-22T20:31:16.642Z,100861.84
2023-02-22T20:33:46.613Z,100858.97
2023-02-22T20:36:21.534Z,100850.34
2023-02-22T20:38:52.393Z,100863.41
2023-02-22T20:41:24.104Z,100874.63
2023-02-22T20:43:52.396Z,100881.50
2023-02-22T20:46:22.721Z,100878.88
2023-02-22T20:48:50.677Z,100869.50
2023-02-22T20:51:20.089Z,100891.69
2023-02-22T20:53:50.021Z,100889.22
2023-02-22T20:56:21.019Z,100907.78
2023-02-22T20:58:48.899Z,100912.13
2023-02-22T21:01:19.335Z,100917.41
2023-02-22T21:03:48.108Z,100911.28
2023-02-22T21:06:17.751Z,100901.13
2023-02-22T21:08:53.615Z,100887.66
2023-02-22T21:11:22.627Z,100895.03
2023-02-22T21:13:50.631Z,100916.47
2023-02-22T21:16:20.485Z,100905.31
2023-02-22T21:18:51.077Z,100908.09
2023-02-22T21:21:19.320Z,100907.94
2023-02-22T21:23:51.597Z,100896.22
2023-02-22T21:26:23.526Z,100889.28
2023-02-22T21:28:51.856Z,100892.50
2023-02-22T21:31:21.418Z,100888.06
2023-02-22T21:33:50.421Z,100884.09
2023-02-22T21:36:18.942Z,100882.91
2023-02-22T21:38:49.314Z,100883.44
2023-02-22T21:41:18.917Z,100872.97
2023-02-22T21:43:50.222Z,100865.53
2023-02-22T21:46:18.171Z,100861.59
2023-02-22T21:48:48.800Z,100861.84
2023-02-22T21:51:19.580Z,100859.97
2023-02-22T21:53:48.858Z,100866.03
2023-02-22T21:56:22.645Z,100861.47
2023-02-22T21:58:58.967Z,100860.88
2023-02-22T22:01:28.480Z,100851.66
2023-02-22T22:03:59.550Z,100846.16
2023-02-22T22:06:28.721Z,100854.66
2023-02-22T22:08:57.111Z,100850.06
2023-02-22T22:11:26.225Z,100842.22
2023-02-22T22:13:57.655Z,100856.44
2023-02-22T22:16:29.676Z,100848.53
2023-02-22T22:18:58.141Z,100843.53
2023-02-22T22:21:26.562Z,100844.22
2023-02-22T22:23:56.071Z,100850.56
2023-02-22T22:26:27.357Z,100847.59
2023-02-22T22:28:59.057Z,100859.34
2023-02-22T22:31:28.889Z,100850.59
2023-02-22T22:33:57.588Z,100864.34
2023-02-22T22:36:27.645Z,100851.19
2023-02-22T22:38:57.749Z,100854.72
2023-02-22T22:41:28.855Z,100858.53
2023-02-22T22:43:56.798Z,100860.97
2023-02-22T22:46:24.641Z,100841.78
2023-02-22T22:48:52.393Z,100849.00
2023-02-22T22:51:21.966Z,100845.31
2023-02-22T22:53:51.104Z,100849.25
2023-02-22T22:56:21.346Z,100851.66
2023-02-22T22:58:52.388Z,100858.38
2023-02-22T23:01:27.089Z,100862.16
2023-02-22T23:03:59.281Z,100865.59
2023-02-22T23:06:30.910Z,100866.09
2023-02-22T23:09:00.978Z,100857.94
2023-02-22T23:11:30.392Z,100853.19
2023-02-22T23:14:00.352Z,100856.44
2023-02-22T23:16:28.814Z,100858.41
2023-02-22T23:18:56.615Z,100856.50
2023-02-22T23:21:24.433Z,100855.78
2023-02-22T23:23:55.913Z,100853.13
2023-02-22T23:26:26.569Z,100851.28
2023-02-22T23:28:56.528Z,100861.91
2023-02-22T23:31:26.022Z,100867.97
2023-02-22T23:33:55.693Z,100862.69
2023-02-22T23:36:23.735Z,100871.72
2023-02-22T23:38:52.241Z,100874.28
2023-02-22T23:41:20.318Z,100871.41
2023-02-22T23:43:48.466Z,100876.69
2023-02-22T23:46:19.430Z,100867.91
2023-02-22T23:48:54.488Z,100870.75
2023-02-22T23:51:25.444Z,100879.78
2023-02-22T23:53:55.545Z,100880.34
2023-02-22T23:56:25.352Z,100883.75
2023-02-22T23:58:57.072Z,100880.53
